createdAt,value
2023-01-13T00:00:24.637Z,3.29
2023-01-13T00:02:53.037Z,3.03
2023-01-13T00:05:20.946Z,3.29
2023-01-13T00:07:49.866Z,3.04
2023-01-13T00:10:18.613Z,3.18
2023-01-13T00:12:46.649Z,3.11
2023-01-13T00:15:14.719Z,3.58
2023-01-13T00:17:43.042Z,2.34
2023-01-13T00:20:11.812Z,2.98
2023-01-13T00:22:39.790Z,3.32
2023-01-13T00:25:08.697Z,2.56
2023-01-13T00:27:36.701Z,2.94
2023-01-13T00:30:06.114Z,2.50
2023-01-13T00:32:34.439Z,2.01
2023-01-13T00:35:02.390Z,1.90
2023-01-13T00:37:30.519Z,2.15
2023-01-13T00:39:58.768Z,2.48
2023-01-13T00:42:45.412Z,2.50
2023-01-13T00:45:13.520Z,2.13
2023-01-13T00:47:41.431Z,2.72
2023-01-13T00:50:10.221Z,2.78
2023-01-13T00:52:40.042Z,2.53
2023-01-13T00:55:09.443Z,1.79
2023-01-13T00:57:37.505Z,2.04
2023-01-13T01:00:06.189Z,2.15
2023-01-13T01:02:34.168Z,2.71
2023-01-13T01:05:02.274Z,2.75
2023-01-13T01:07:30.655Z,2.79
2023-01-13T01:09:58.597Z,2.85
2023-01-13T01:12:26.573Z,2.04
2023-01-13T01:14:54.895Z,1.93
2023-01-13T01:17:22.833Z,2.09
2023-01-13T01:19:50.786Z,2.46
2023-01-13T01:22:19.119Z,2.25
2023-01-13T01:24:47.851Z,2.20
2023-01-13T01:27:15.844Z,2.08
2023-01-13T01:29:44.370Z,2.62
2023-01-13T01:32:12.481Z,2.54
2023-01-13T01:34:40.500Z,1.94
2023-01-13T01:37:08.854Z,2.65
2023-01-13T01:39:36.813Z,2.36
2023-01-13T01:42:23.498Z,2.72
2023-01-13T01:45:01.835Z,2.68
2023-01-13T01:47:31.733Z,3.12
2023-01-13T01:50:02.483Z,2.36
2023-01-13T01:52:32.441Z,2.44
2023-01-13T01:55:07.067Z,2.05
2023-01-13T01:57:38.015Z,2.04
2023-01-13T02:00:07.141Z,2.56
2023-01-13T02:02:40.507Z,2.74
2023-01-13T02:05:09.223Z,2.36
2023-01-13T02:07:39.555Z,2.16
2023-01-13T02:10:11.262Z,2.91
2023-01-13T02:12:40.416Z,3.27
2023-01-13T02:15:17.074Z,3.23
2023-01-13T02:18:33.104Z,3.38
2023-01-13T02:21:33.252Z,3.48
2023-01-13T02:27:19.178Z,2.56
2023-01-13T02:30:06.130Z,2.95
2023-01-13T02:32:46.143Z,2.71
2023-01-13T02:35:45.468Z,2.96
2023-01-13T02:38:15.059Z,3.25
2023-01-13T02:40:57.040Z,3.17
2023-01-13T02:43:55.941Z,2.70
2023-01-13T02:46:28.521Z,3.38
2023-01-13T02:48:58.252Z,2.33
2023-01-13T02:51:27.646Z,2.12
2023-01-13T02:54:01.631Z,3.32
2023-01-13T02:56:31.554Z,3.43
2023-01-13T02:59:00.652Z,2.50
2023-01-13T03:01:28.780Z,2.66
2023-01-13T03:03:57.220Z,2.96
2023-01-13T03:06:45.400Z,3.40
2023-01-13T03:09:32.015Z,2.69
2023-01-13T03:12:16.202Z,2.87
2023-01-13T03:15:01.279Z,2.83
2023-01-13T03:17:45.279Z,3.55
2023-01-13T03:20:18.395Z,2.90
2023-01-13T03:22:53.469Z,3.22
2023-01-13T03:25:25.814Z,3.06
2023-01-13T03:27:58.281Z,2.50
2023-01-13T03:30:26.578Z,2.45
2023-01-13T03:33:00.400Z,3.36
2023-01-13T03:35:33.044Z,3.47
2023-01-13T03:38:06.203Z,3.57
2023-01-13T03:40:39.350Z,2.90
2023-01-13T03:43:31.215Z,2.48
2023-01-13T03:46:03.767Z,2.41
2023-01-13T03:48:33.188Z,2.65
2023-01-13T03:51:07.418Z,2.79
2023-01-13T03:53:40.882Z,3.55
2023-01-13T03:57:00.668Z,2.70
2023-01-13T03:59:34.807Z,3.11
2023-01-13T04:02:22.005Z,3.07
2023-01-13T04:04:56.226Z,3.13
2023-01-13T04:07:43.315Z,2.78
2023-01-13T04:10:12.674Z,2.76
2023-01-13T04:13:00.893Z,2.80
2023-01-13T04:15:38.136Z,3.59
2023-01-13T04:18:11.830Z,2.85
2023-01-13T04:20:40.684Z,2.90
2023-01-13T04:23:09.570Z,3.28
2023-01-13T04:25:37.958Z,3.89
2023-01-13T04:28:06.697Z,3.73
2023-01-13T04:30:34.683Z,2.81
2023-01-13T04:33:04.371Z,3.03
2023-01-13T04:35:34.101Z,3.15
2023-01-13T04:38:12.812Z,3.25
2023-01-13T04:40:42.150Z,3.23
2023-01-13T04:43:10.450Z,2.75
2023-01-13T04:45:38.635Z,2.87
2023-01-13T04:48:07.075Z,2.69
2023-01-13T04:50:35.102Z,2.54
2023-01-13T04:53:03.058Z,2.17
2023-01-13T04:55:32.276Z,2.94
2023-01-13T04:58:08.131Z,2.63
2023-01-13T05:00:37.594Z,3.40
2023-01-13T05:03:05.780Z,2.39
2023-01-13T05:05:33.661Z,2.64
2023-01-13T05:08:02.100Z,2.51
2023-01-13T05:10:30.166Z,2.71
2023-01-13T05:13:16.851Z,3.35
2023-01-13T05:16:22.958Z,3.42
2023-01-13T05:18:50.940Z,3.58
2023-01-13T05:21:37.973Z,3.08
2023-01-13T05:24:24.755Z,2.56
2023-01-13T05:26:52.866Z,2.62
2023-01-13T05:29:20.612Z,2.92
2023-01-13T05:31:48.606Z,3.54
2023-01-13T05:34:17.000Z,3.22
2023-01-13T05:36:44.940Z,3.34
2023-01-13T05:39:13.029Z,3.30
2023-01-13T05:41:59.752Z,2.95
2023-01-13T05:44:27.788Z,2.86
2023-01-13T05:46:56.185Z,2.50
2023-01-13T05:49:24.391Z,2.37
2023-01-13T05:51:52.406Z,2.66
2023-01-13T05:54:20.708Z,1.96
2023-01-13T05:56:48.846Z,2.32
2023-01-13T05:59:16.783Z,2.90
2023-01-13T06:01:45.148Z,2.75
2023-01-13T06:04:13.589Z,2.41
2023-01-13T06:06:43.631Z,3.03
2023-01-13T06:09:11.678Z,3.43
2023-01-13T06:11:39.966Z,3.47
2023-01-13T06:14:07.922Z,3.25
2023-01-13T06:16:36.060Z,2.57
2023-01-13T06:19:09.078Z,2.93
2023-01-13T06:21:37.194Z,2.94
2023-01-13T06:24:06.899Z,2.30
2023-01-13T06:26:38.652Z,2.37
2023-01-13T06:29:08.525Z,2.12
2023-01-13T06:31:39.350Z,2.33
2023-01-13T06:34:13.473Z,1.59
2023-01-13T06:36:47.727Z,1.38
2023-01-13T06:39:19.093Z,1.65
2023-01-13T06:42:07.325Z,2.51
2023-01-13T06:44:35.811Z,2.47
2023-01-13T06:47:04.190Z,2.33
2023-01-13T06:49:32.228Z,2.96
2023-01-13T06:52:00.593Z,2.78
2023-01-13T06:54:28.612Z,2.43
2023-01-13T06:56:56.522Z,2.26
2023-01-13T06:59:25.475Z,2.42
2023-01-13T07:01:53.614Z,2.43
2023-01-13T07:04:21.967Z,2.06
2023-01-13T07:06:50.325Z,2.52
2023-01-13T07:09:18.337Z,2.73
2023-01-13T07:11:46.970Z,3.17
2023-01-13T07:14:33.908Z,3.23
2023-01-13T07:17:01.913Z,3.30
2023-01-13T07:19:30.277Z,3.91
2023-01-13T07:21:58.444Z,3.63
2023-01-13T07:24:26.500Z,3.89
2023-01-13T07:26:54.920Z,3.29
2023-01-13T07:29:22.959Z,3.80
2023-01-13T07:31:51.108Z,3.04
2023-01-13T07:34:20.246Z,2.69
2023-01-13T07:36:48.811Z,2.59
2023-01-13T07:39:16.876Z,3.70
2023-01-13T07:42:03.679Z,3.90
2023-01-13T07:44:31.979Z,3.92
2023-01-13T07:47:00.261Z,3.72
2023-01-13T07:49:28.304Z,3.61
2023-01-13T07:51:56.335Z,3.59
2023-01-13T07:54:39.024Z,3.93
2023-01-13T07:57:08.351Z,4.23
2023-01-13T07:59:37.157Z,3.31
2023-01-13T08:02:05.397Z,2.95
2023-01-13T08:04:34.368Z,2.91
2023-01-13T08:07:02.513Z,3.12
2023-01-13T08:09:30.898Z,3.65
2023-01-13T08:12:19.354Z,3.76
2023-01-13T08:14:50.594Z,4.04
2023-01-13T08:17:20.618Z,3.85
2023-01-13T08:19:49.747Z,3.39
2023-01-13T08:22:19.957Z,3.81
2023-01-13T08:24:49.338Z,4.10
2023-01-13T08:27:20.617Z,4.61
2023-01-13T08:29:49.483Z,4.56
2023-01-13T08:32:18.123Z,4.64
2023-01-13T08:34:46.735Z,4.39
2023-01-13T08:37:15.896Z,4.27
2023-01-13T08:39:45.715Z,4.60
2023-01-13T08:42:14.415Z,4.58
2023-01-13T08:44:43.444Z,4.77
2023-01-13T08:47:13.193Z,4.45
2023-01-13T08:49:43.388Z,4.46
2023-01-13T08:52:25.065Z,4.65
2023-01-13T08:54:53.775Z,4.48
2023-01-13T08:57:23.340Z,4.31
2023-01-13T08:59:52.073Z,4.41
2023-01-13T09:02:22.438Z,4.42
2023-01-13T09:04:54.036Z,4.47
2023-01-13T09:07:23.050Z,3.85
2023-01-13T09:09:57.843Z,4.09
2023-01-13T09:13:00.407Z,4.42
2023-01-13T09:15:32.005Z,4.39
2023-01-13T09:29:01.533Z,5.01
2023-01-13T09:31:30.328Z,4.76
2023-01-13T09:34:18.654Z,4.52
2023-01-13T09:36:49.263Z,4.92
2023-01-13T09:39:18.359Z,5.32
2023-01-13T09:42:10.873Z,5.19
2023-01-13T09:45:09.230Z,5.33
2023-01-13T09:47:51.469Z,5.09
2023-01-13T09:50:42.032Z,4.93
2023-01-13T09:53:15.596Z,5.00
2023-01-13T09:55:45.676Z,4.95
2023-01-13T09:58:18.440Z,5.18
2023-01-13T10:01:07.041Z,5.16
2023-01-13T10:03:36.932Z,4.90
2023-01-13T10:06:21.879Z,5.11
2023-01-13T10:08:51.395Z,5.13
2023-01-13T10:11:43.219Z,5.09
2023-01-13T10:14:47.273Z,4.93
2023-01-13T10:17:34.805Z,5.05
2023-01-13T10:20:20.813Z,5.07
2023-01-13T10:23:04.179Z,5.22
2023-01-13T10:26:28.299Z,5.16
2023-01-13T10:28:57.204Z,5.18
2023-01-13T10:31:26.283Z,4.95
2023-01-13T10:34:02.038Z,5.37
2023-01-13T10:36:31.287Z,5.19
2023-01-13T10:39:11.006Z,5.26
2023-01-13T10:41:40.738Z,5.30
2023-01-13T10:44:23.278Z,5.10
2023-01-13T10:46:54.292Z,5.06
2023-01-13T10:49:37.063Z,4.69
2023-01-13T10:52:28.780Z,4.90
2023-01-13T10:54:57.544Z,5.15
2023-01-13T10:57:27.893Z,4.95
2023-01-13T10:59:56.638Z,4.69
2023-01-13T11:02:36.275Z,5.03
2023-01-13T11:05:23.086Z,4.96
2023-01-13T11:07:54.448Z,5.01
2023-01-13T11:10:28.670Z,5.08
2023-01-13T11:14:03.424Z,5.10
2023-01-13T11:16:52.812Z,5.08
2023-01-13T11:19:24.351Z,4.92
2023-01-13T11:22:03.758Z,4.98
2023-01-13T11:24:40.399Z,5.24
2023-01-13T11:27:15.229Z,4.81
2023-01-13T11:29:56.287Z,5.09
2023-01-13T11:32:25.341Z,4.98
2023-01-13T11:35:01.249Z,4.85
2023-01-13T11:37:33.565Z,4.90
2023-01-13T11:40:06.001Z,5.23
2023-01-13T11:42:42.385Z,4.90
2023-01-13T11:45:20.994Z,5.05
2023-01-13T11:47:52.712Z,5.03
2023-01-13T11:50:35.642Z,4.87
2023-01-13T11:53:13.089Z,4.92
2023-01-13T11:55:58.512Z,4.83
2023-01-13T11:58:50.810Z,5.48
2023-01-13T12:01:39.480Z,5.36
2023-01-13T12:04:23.217Z,5.18
2023-01-13T12:07:22.877Z,5.35
2023-01-13T12:10:15.669Z,5.21
2023-01-13T12:13:04.442Z,5.11
2023-01-13T12:16:07.381Z,5.33
2023-01-13T12:19:38.339Z,5.38
2023-01-13T12:22:27.482Z,5.20
2023-01-13T12:25:07.286Z,4.92
2023-01-13T12:27:42.434Z,5.04
2023-01-13T12:30:26.149Z,4.40
2023-01-13T12:32:58.954Z,4.33
2023-01-13T12:35:44.359Z,4.69
2023-01-13T12:38:36.016Z,4.41
2023-01-13T12:41:31.282Z,5.09
2023-01-13T12:44:18.608Z,5.05
2023-01-13T12:46:56.536Z,5.30
2023-01-13T12:49:27.455Z,5.12
2023-01-13T12:51:55.654Z,5.43
2023-01-13T12:54:46.425Z,5.42
2023-01-13T12:57:27.612Z,4.98
2023-01-13T13:00:05.172Z,5.32
2023-01-13T13:02:43.559Z,5.21
2023-01-13T13:05:16.371Z,5.37
2023-01-13T13:07:53.420Z,5.00
2023-01-13T13:10:31.483Z,4.98
2023-01-13T13:13:20.399Z,5.39
2023-01-13T13:15:50.688Z,5.47
2023-01-13T13:18:24.091Z,5.57
2023-01-13T13:21:03.966Z,5.24
2023-01-13T13:24:04.584Z,5.55
2023-01-13T13:26:42.712Z,5.21
2023-01-13T13:29:23.801Z,5.31
2023-01-13T13:32:13.241Z,5.62
2023-01-13T13:34:57.105Z,5.63
2023-01-13T13:38:02.383Z,5.35
2023-01-13T13:40:52.542Z,5.66
2023-01-13T13:43:39.418Z,5.53
2023-01-13T13:46:49.056Z,5.56
2023-01-13T13:49:34.490Z,5.54
2023-01-13T13:52:12.007Z,5.79
2023-01-13T13:54:44.438Z,5.64
2023-01-13T13:57:33.585Z,5.78
2023-01-13T14:00:20.328Z,5.80
2023-01-13T14:02:53.174Z,5.72
2023-01-13T14:05:29.918Z,5.74
2023-01-13T14:08:04.362Z,5.65
2023-01-13T14:10:35.446Z,5.45
2023-01-13T14:13:27.384Z,6.00
2023-01-13T14:15:57.981Z,5.86
2023-01-13T14:18:27.481Z,6.32
2023-01-13T14:21:03.890Z,5.89
2023-01-13T14:23:34.295Z,6.18
2023-01-13T14:26:08.120Z,6.19
2023-01-13T14:28:40.787Z,6.27
2023-01-13T14:31:09.821Z,6.30
2023-01-13T14:33:50.068Z,6.17
2023-01-13T14:36:25.183Z,6.07
2023-01-13T14:39:05.877Z,6.22
2023-01-13T14:41:41.360Z,6.22
2023-01-13T14:44:34.527Z,6.34
2023-01-13T14:47:20.696Z,6.41
2023-01-13T14:50:04.861Z,6.23
2023-01-13T14:52:35.682Z,6.14
2023-01-13T14:55:09.071Z,6.56
2023-01-13T14:57:44.003Z,6.20
2023-01-13T15:00:15.738Z,6.00
2023-01-13T15:03:02.130Z,6.42
2023-01-13T15:05:35.110Z,6.62
2023-01-13T15:08:14.298Z,6.14
2023-01-13T15:10:55.689Z,6.41
2023-01-13T15:13:48.868Z,6.20
2023-01-13T15:16:30.461Z,5.85
2023-01-13T15:19:16.065Z,6.16
2023-01-13T15:21:48.527Z,6.34
2023-01-13T15:24:26.843Z,6.33
2023-01-13T15:26:56.384Z,6.04
2023-01-13T15:29:24.866Z,6.12
2023-01-13T15:32:00.978Z,5.84
2023-01-13T15:34:37.806Z,6.24
2023-01-13T15:37:05.963Z,6.24
2023-01-13T15:39:36.361Z,6.04
2023-01-13T15:42:24.700Z,5.89
2023-01-13T15:45:12.765Z,5.80
2023-01-13T15:47:41.107Z,5.79
2023-01-13T15:50:19.475Z,5.51
2023-01-13T15:52:47.867Z,5.75
2023-01-13T15:55:16.983Z,5.98
2023-01-13T15:57:50.413Z,5.71
2023-01-13T16:00:25.153Z,5.87
2023-01-13T16:02:55.382Z,5.78
2023-01-13T16:05:23.599Z,6.04
2023-01-13T16:07:52.038Z,5.86
2023-01-13T16:10:26.813Z,5.91
2023-01-13T16:12:57.983Z,5.81
2023-01-13T16:15:26.571Z,5.86
2023-01-13T16:18:00.128Z,5.65
2023-01-13T16:20:28.832Z,5.76
2023-01-13T16:22:57.007Z,5.68
2023-01-13T16:25:26.965Z,5.72
2023-01-13T16:27:55.617Z,5.70
2023-01-13T16:30:30.782Z,6.11
2023-01-13T16:32:59.404Z,5.64
2023-01-13T16:35:29.209Z,5.65
2023-01-13T16:37:58.810Z,5.69
2023-01-13T16:40:33.618Z,6.02
2023-01-13T16:43:07.832Z,5.91
2023-01-13T16:45:39.897Z,5.62
2023-01-13T16:48:19.610Z,5.92
2023-01-13T16:50:50.211Z,6.31
2023-01-13T16:53:18.452Z,5.95
2023-01-13T16:55:48.817Z,6.10
2023-01-13T16:58:20.249Z,6.35
2023-01-13T17:00:49.298Z,6.26
2023-01-13T17:03:17.940Z,5.78
2023-01-13T17:05:47.801Z,5.81
2023-01-13T17:08:18.313Z,5.95
2023-01-13T17:10:47.808Z,5.86
2023-01-13T17:13:17.358Z,5.68
2023-01-13T17:15:46.162Z,6.14
2023-01-13T17:18:14.801Z,6.16
2023-01-13T17:20:42.977Z,6.31
2023-01-13T17:23:11.199Z,6.15
2023-01-13T17:25:39.802Z,6.52
2023-01-13T17:28:08.071Z,6.24
2023-01-13T17:30:36.653Z,6.24
2023-01-13T17:33:05.371Z,6.36
2023-01-13T17:35:33.578Z,6.34
2023-01-13T17:38:03.386Z,6.19
2023-01-13T17:40:32.555Z,5.88
2023-01-13T17:43:00.871Z,5.63
2023-01-13T17:45:30.425Z,6.02
2023-01-13T17:48:00.527Z,6.20
2023-01-13T17:50:31.028Z,5.97
2023-01-13T17:52:59.804Z,6.07
2023-01-13T17:55:28.542Z,6.22
2023-01-13T17:57:58.911Z,6.45
2023-01-13T18:00:31.041Z,6.87
2023-01-13T18:03:00.463Z,6.69
2023-01-13T18:05:30.494Z,6.06
2023-01-13T18:08:01.168Z,6.11
2023-01-13T18:10:29.208Z,6.54
2023-01-13T18:12:57.689Z,6.37
2023-01-13T18:15:27.219Z,6.16
2023-01-13T18:17:56.177Z,6.67
2023-01-13T18:20:42.859Z,6.38
2023-01-13T18:23:39.648Z,6.44
2023-01-13T18:26:38.720Z,6.92
2023-01-13T18:29:09.549Z,6.63
2023-01-13T18:31:41.254Z,6.33
2023-01-13T18:34:12.415Z,6.43
2023-01-13T18:36:42.929Z,6.17
2023-01-13T18:39:12.319Z,6.11
2023-01-13T18:42:03.497Z,6.23
2023-01-13T18:44:32.727Z,6.34
2023-01-13T18:47:01.253Z,6.56
2023-01-13T18:49:29.491Z,6.99
2023-01-13T18:51:59.334Z,7.35
2023-01-13T18:54:33.558Z,6.83
2023-01-13T18:57:05.715Z,6.21
2023-01-13T18:59:35.181Z,6.38
2023-01-13T19:02:09.670Z,6.38
2023-01-13T19:04:40.219Z,6.63
2023-01-13T19:07:13.773Z,6.29
2023-01-13T19:09:42.554Z,6.21
2023-01-13T19:12:12.693Z,6.56
2023-01-13T19:14:43.225Z,6.53
2023-01-13T19:17:14.149Z,6.68
2023-01-13T19:19:48.238Z,6.66
2023-01-13T19:22:20.017Z,7.17
2023-01-13T19:24:48.127Z,6.97
2023-01-13T19:27:18.999Z,7.15
2023-01-13T19:29:52.163Z,6.94
2023-01-13T19:32:22.590Z,7.49
2023-01-13T19:34:51.479Z,6.84
2023-01-13T19:37:20.089Z,6.54
2023-01-13T19:39:48.597Z,6.70
2023-01-13T19:42:35.529Z,6.60
2023-01-13T19:45:23.115Z,6.14
2023-01-13T19:47:51.397Z,6.21
2023-01-13T19:50:19.947Z,6.52
2023-01-13T19:52:48.289Z,6.43
2023-01-13T19:55:16.416Z,6.70
2023-01-13T19:57:47.419Z,7.15
2023-01-13T20:00:20.978Z,6.74
2023-01-13T20:02:59.281Z,6.74
2023-01-13T20:05:29.454Z,7.02
2023-01-13T20:08:00.011Z,6.99
2023-01-13T20:10:30.613Z,6.81
2023-01-13T20:12:59.545Z,6.68
2023-01-13T20:15:27.995Z,6.84
2023-01-13T20:17:57.548Z,6.54
2023-01-13T20:20:27.592Z,6.73
2023-01-13T20:22:58.312Z,6.08
2023-01-13T20:25:29.051Z,6.26
2023-01-13T20:27:58.723Z,6.64
2023-01-13T20:30:27.609Z,6.60
2023-01-13T20:32:56.582Z,6.60
2023-01-13T20:35:29.853Z,6.29
2023-01-13T20:38:00.330Z,6.05
2023-01-13T20:40:29.552Z,6.56
2023-01-13T20:42:57.631Z,6.64
2023-01-13T20:45:26.420Z,6.87
2023-01-13T20:47:54.672Z,6.61
2023-01-13T20:50:22.856Z,6.93
2023-01-13T20:52:52.932Z,6.60
2023-01-13T20:55:21.313Z,6.53
2023-01-13T20:57:50.376Z,6.60
2023-01-13T21:00:19.412Z,6.53
2023-01-13T21:02:47.482Z,6.23
2023-01-13T21:05:15.741Z,6.77
2023-01-13T21:07:44.215Z,6.73
2023-01-13T21:10:12.274Z,6.68
2023-01-13T21:12:58.923Z,6.32
2023-01-13T21:15:28.017Z,6.53
2023-01-13T21:18:14.543Z,6.53
2023-01-13T21:20:43.113Z,6.97
2023-01-13T21:23:11.294Z,6.52
2023-01-13T21:25:40.463Z,6.70
2023-01-13T21:28:11.886Z,6.86
2023-01-13T21:30:40.310Z,6.68
2023-01-13T21:33:13.455Z,6.73
2023-01-13T21:35:41.520Z,6.73
2023-01-13T21:38:11.243Z,6.51
2023-01-13T21:40:39.384Z,6.64
2023-01-13T21:43:30.212Z,6.44
2023-01-13T21:46:36.774Z,6.53
2023-01-13T21:49:05.271Z,6.55
2023-01-13T21:51:34.344Z,6.40
2023-01-13T21:54:02.537Z,6.12
2023-01-13T21:56:30.581Z,6.40
2023-01-13T21:58:59.027Z,6.20
2023-01-13T22:01:27.203Z,6.53
2023-01-13T22:04:14.133Z,6.62
2023-01-13T22:06:42.200Z,6.20
2023-01-13T22:09:10.585Z,5.92
2023-01-13T22:11:38.678Z,6.28
2023-01-13T22:14:10.222Z,6.39
2023-01-13T22:16:42.211Z,5.85
2023-01-13T22:19:10.967Z,6.47
2023-01-13T22:21:40.272Z,6.42
2023-01-13T22:24:08.715Z,5.98
2023-01-13T22:26:36.795Z,6.09
2023-01-13T22:29:05.294Z,6.86
2023-01-13T22:31:33.512Z,6.70
2023-01-13T22:34:01.729Z,6.57
2023-01-13T22:36:30.236Z,6.57
2023-01-13T22:39:00.648Z,6.88
2023-01-13T22:41:28.833Z,6.70
2023-01-13T22:43:57.246Z,6.43
2023-01-13T22:46:25.385Z,6.68
2023-01-13T22:48:55.294Z,6.53
2023-01-13T22:51:23.872Z,6.62
2023-01-13T22:53:52.110Z,6.88
2023-01-13T22:56:22.311Z,7.10
2023-01-13T22:58:57.726Z,6.74
2023-01-13T23:01:28.049Z,6.69
2023-01-13T23:03:57.286Z,7.19
2023-01-13T23:06:27.130Z,6.83
2023-01-13T23:08:55.311Z,6.43
2023-01-13T23:11:27.081Z,7.30
2023-01-13T23:14:03.005Z,6.68
2023-01-13T23:16:34.857Z,6.87
2023-01-13T23:19:03.911Z,7.07
2023-01-13T23:21:36.384Z,7.77
2023-01-13T23:24:06.003Z,7.27
2023-01-13T23:26:34.856Z,7.38
2023-01-13T23:29:07.977Z,7.64
2023-01-13T23:31:36.584Z,7.03
2023-01-13T23:34:04.799Z,6.81
2023-01-13T23:36:33.774Z,7.10
2023-01-13T23:39:02.142Z,6.85
2023-01-13T23:41:30.282Z,6.74
2023-01-13T23:44:00.248Z,6.67
2023-01-13T23:46:30.798Z,6.85
2023-01-13T23:48:58.982Z,6.85
2023-01-13T23:51:27.875Z,6.98
2023-01-13T23:53:56.914Z,6.46
2023-01-13T23:56:27.893Z,6.14
2023-01-13T23:58:56.364Z,6.47
